sensor_id;sensor_type;location;lat;lon;timestamp;P1;durP1;ratioP1;P2;durP2;ratioP2
177;SDS011;77;48.792;9.032;2023-08-06T00:01:35;6.30;;;4.10;;
177;SDS011;77;48.792;9.032;2023-08-06T00:04:02;5.30;;;3.83;;
177;SDS011;77;48.792;9.032;2023-08-06T00:06:27;6.60;;;3.90;;
177;SDS011;77;48.792;9.032;2023-08-06T00:08:52;7.30;;;4.03;;
177;SDS011;77;48.792;9.032;2023-08-06T00:11:18;5.85;;;3.90;;
177;SDS011;77;48.792;9.032;2023-08-06T00:13:43;5.70;;;4.20;;
177;SDS011;77;48.792;9.032;2023-08-06T00:16:09;5.63;;;3.87;;
177;SDS011;77;48.792;9.032;2023-08-06T00:18:34;8.57;;;4.13;;
177;SDS011;77;48.792;9.032;2023-08-06T00:21:00;7.50;;;4.23;;
177;SDS011;77;48.792;9.032;2023-08-06T00:23:25;7.70;;;4.20;;
177;SDS011;77;48.792;9.032;2023-08-06T00:25:51;7.37;;;4.63;;
177;SDS011;77;48.792;9.032;2023-08-06T00:28:16;6.27;;;4.13;;
177;SDS011;77;48.792;9.032;2023-08-06T00:30:41;6.83;;;4.53;;
177;SDS011;77;48.792;9.032;2023-08-06T00:33:06;7.43;;;4.20;;
177;SDS011;77;48.792;9.032;2023-08-06T00:35:31;7.33;;;4.30;;
177;SDS011;77;48.792;9.032;2023-08-06T00:37:58;6.10;;;4.30;;
177;SDS011;77;48.792;9.032;2023-08-06T00:40:23;6.90;;;4.37;;
177;SDS011;77;48.792;9.032;2023-08-06T00:42:48;7.20;;;4.17;;
177;SDS011;77;48.792;9.032;2023-08-06T00:45:13;7.47;;;4.60;;
177;SDS011;77;48.792;9.032;2023-08-06T00:47:38;8.47;;;4.30;;
177;SDS011;77;48.792;9.032;2023-08-06T00:50:04;6.80;;;4.37;;
177;SDS011;77;48.792;9.032;2023-08-06T00:52:30;6.70;;;4.47;;
177;SDS011;77;48.792;9.032;2023-08-06T00:54:56;8.67;;;4.30;;
177;SDS011;77;48.792;9.032;2023-08-06T00:57:22;9.37;;;4.00;;
177;SDS011;77;48.792;9.032;2023-08-06T00:59:49;7.03;;;4.10;;
177;SDS011;77;48.792;9.032;2023-08-06T01:02:14;6.50;;;4.17;;
177;SDS011;77;48.792;9.032;2023-08-06T01:04:39;7.73;;;4.63;;
177;SDS011;77;48.792;9.032;2023-08-06T01:07:06;6.77;;;4.17;;
177;SDS011;77;48.792;9.032;2023-08-06T01:09:39;6.20;;;4.37;;
177;SDS011;77;48.792;9.032;2023-08-06T01:12:12;7.50;;;4.03;;
177;SDS011;77;48.792;9.032;2023-08-06T01:14:44;9.53;;;4.73;;
177;SDS011;77;48.792;9.032;2023-08-06T01:17:10;6.60;;;4.47;;
177;SDS011;77;48.792;9.032;2023-08-06T01:19:37;6.30;;;4.33;;
177;SDS011;77;48.792;9.032;2023-08-06T01:22:04;6.10;;;4.10;;
177;SDS011;77;48.792;9.032;2023-08-06T01:24:29;6.77;;;4.33;;
177;SDS011;77;48.792;9.032;2023-08-06T01:26:56;6.10;;;4.17;;
177;SDS011;77;48.792;9.032;2023-08-06T01:29:25;6.77;;;4.63;;
177;SDS011;77;48.792;9.032;2023-08-06T01:31:53;7.40;;;4.40;;
177;SDS011;77;48.792;9.032;2023-08-06T01:34:20;11.17;;;4.57;;
177;SDS011;77;48.792;9.032;2023-08-06T01:36:46;6.20;;;4.03;;
177;SDS011;77;48.792;9.032;2023-08-06T01:39:12;5.97;;;4.30;;
177;SDS011;77;48.792;9.032;2023-08-06T01:41:38;5.60;;;4.10;;
177;SDS011;77;48.792;9.032;2023-08-06T01:44:03;6.40;;;4.50;;
177;SDS011;77;48.792;9.032;2023-08-06T01:46:28;5.90;;;3.93;;
177;SDS011;77;48.792;9.032;2023-08-06T01:48:53;5.40;;;3.90;;
177;SDS011;77;48.792;9.032;2023-08-06T01:51:18;9.10;;;4.20;;
177;SDS011;77;48.792;9.032;2023-08-06T01:53:44;6.67;;;4.17;;
177;SDS011;77;48.792;9.032;2023-08-06T01:56:10;8.30;;;4.27;;
177;SDS011;77;48.792;9.032;2023-08-06T01:58:35;9.47;;;4.00;;
177;SDS011;77;48.792;9.032;2023-08-06T02:01:00;7.37;;;4.00;;
177;SDS011;77;48.792;9.032;2023-08-06T02:03:26;8.60;;;4.37;;
177;SDS011;77;48.792;9.032;2023-08-06T02:05:51;10.73;;;4.13;;
177;SDS011;77;48.792;9.032;2023-08-06T02:08:16;7.10;;;3.90;;
177;SDS011;77;48.792;9.032;2023-08-06T02:10:41;9.40;;;3.97;;
177;SDS011;77;48.792;9.032;2023-08-06T02:13:08;6.80;;;3.80;;
177;SDS011;77;48.792;9.032;2023-08-06T02:15:33;5.90;;;3.80;;
177;SDS011;77;48.792;9.032;2023-08-06T02:17:58;8.13;;;4.43;;
177;SDS011;77;48.792;9.032;2023-08-06T02:20:23;6.00;;;3.67;;
177;SDS011;77;48.792;9.032;2023-08-06T02:22:48;6.67;;;4.27;;
177;SDS011;77;48.792;9.032;2023-08-06T02:25:13;7.47;;;3.60;;
177;SDS011;77;48.792;9.032;2023-08-06T02:27:39;13.70;;;3.83;;
177;SDS011;77;48.792;9.032;2023-08-06T02:30:06;9.60;;;3.70;;
177;SDS011;77;48.792;9.032;2023-08-06T02:32:31;8.93;;;4.30;;
177;SDS011;77;48.792;9.032;2023-08-06T02:34:56;8.80;;;3.50;;
177;SDS011;77;48.792;9.032;2023-08-06T02:37:21;6.60;;;4.00;;
177;SDS011;77;48.792;9.032;2023-08-06T02:39:47;5.70;;;3.40;;
177;SDS011;77;48.792;9.032;2023-08-06T02:42:12;9.00;;;3.83;;
177;SDS011;77;48.792;9.032;2023-08-06T02:44:37;5.60;;;3.60;;
177;SDS011;77;48.792;9.032;2023-08-06T02:47:04;8.47;;;4.10;;
177;SDS011;77;48.792;9.032;2023-08-06T02:49:29;6.37;;;3.70;;
177;SDS011;77;48.792;9.032;2023-08-06T02:51:54;5.77;;;3.60;;
177;SDS011;77;48.792;9.032;2023-08-06T02:54:19;10.43;;;4.17;;
177;SDS011;77;48.792;9.032;2023-08-06T02:56:45;7.57;;;3.42;;
177;SDS011;77;48.792;9.032;2023-08-06T02:59:10;9.03;;;3.97;;
177;SDS011;77;48.792;9.032;2023-08-06T03:01:35;8.67;;;3.97;;
177;SDS011;77;48.792;9.032;2023-08-06T03:04:02;6.13;;;3.75;;
177;SDS011;77;48.792;9.032;2023-08-06T03:06:27;8.17;;;3.80;;
177;SDS011;77;48.792;9.032;2023-08-06T03:08:52;8.57;;;3.60;;
177;SDS011;77;48.792;9.032;2023-08-06T03:11:17;5.93;;;3.60;;
177;SDS011;77;48.792;9.032;2023-08-06T03:13:42;8.73;;;4.13;;
177;SDS011;77;48.792;9.032;2023-08-06T03:16:08;7.67;;;3.97;;
177;SDS011;77;48.792;9.032;2023-08-06T03:18:33;6.60;;;4.00;;
177;SDS011;77;48.792;9.032;2023-08-06T03:20:59;5.83;;;3.60;;
177;SDS011;77;48.792;9.032;2023-08-06T03:23:24;7.53;;;3.53;;
177;SDS011;77;48.792;9.032;2023-08-06T03:25:50;7.70;;;4.27;;
177;SDS011;77;48.792;9.032;2023-08-06T03:28:15;6.33;;;3.90;;
177;SDS011;77;48.792;9.032;2023-08-06T03:30:40;10.07;;;3.93;;
177;SDS011;77;48.792;9.032;2023-08-06T03:33:05;6.40;;;3.77;;
177;SDS011;77;48.792;9.032;2023-08-06T03:35:30;5.83;;;3.60;;
177;SDS011;77;48.792;9.032;2023-08-06T03:37:57;5.90;;;3.70;;
177;SDS011;77;48.792;9.032;2023-08-06T03:40:22;7.07;;;3.77;;
177;SDS011;77;48.792;9.032;2023-08-06T03:42:47;8.30;;;4.37;;
177;SDS011;77;48.792;9.032;2023-08-06T03:45:12;7.20;;;3.70;;
177;SDS011;77;48.792;9.032;2023-08-06T03:47:37;8.57;;;3.40;;
177;SDS011;77;48.792;9.032;2023-08-06T03:50:03;10.20;;;3.77;;
177;SDS011;77;48.792;9.032;2023-08-06T03:52:28;6.80;;;3.70;;
177;SDS011;77;48.792;9.032;2023-08-06T03:54:55;6.90;;;3.60;;
177;SDS011;77;48.792;9.032;2023-08-06T03:57:20;11.10;;;4.30;;
177;SDS011;77;48.792;9.032;2023-08-06T03:59:45;7.20;;;3.93;;
177;SDS011;77;48.792;9.032;2023-08-06T04:02:10;6.90;;;3.50;;
177;SDS011;77;48.792;9.032;2023-08-06T04:04:35;5.60;;;3.23;;
177;SDS011;77;48.792;9.032;2023-08-06T04:07:00;5.97;;;3.67;;
177;SDS011;77;48.792;9.032;2023-08-06T04:09:28;6.57;;;3.47;;
177;SDS011;77;48.792;9.032;2023-08-06T04:11:54;8.00;;;3.90;;
177;SDS011;77;48.792;9.032;2023-08-06T04:14:19;5.87;;;3.50;;
177;SDS011;77;48.792;9.032;2023-08-06T04:16:45;6.47;;;3.90;;
177;SDS011;77;48.792;9.032;2023-08-06T04:19:10;8.33;;;3.90;;
177;SDS011;77;48.792;9.032;2023-08-06T04:21:35;5.80;;;3.70;;
177;SDS011;77;48.792;9.032;2023-08-06T04:24:00;5.87;;;3.70;;
177;SDS011;77;48.792;9.032;2023-08-06T04:26:25;7.63;;;3.70;;
177;SDS011;77;48.792;9.032;2023-08-06T04:28:52;7.45;;;3.47;;
177;SDS011;77;48.792;9.032;2023-08-06T04:31:17;7.50;;;3.57;;
177;SDS011;77;48.792;9.032;2023-08-06T04:33:42;7.60;;;3.70;;
177;SDS011;77;48.792;9.032;2023-08-06T04:36:07;10.87;;;4.00;;
177;SDS011;77;48.792;9.032;2023-08-06T04:38:33;9.23;;;3.80;;
177;SDS011;77;48.792;9.032;2023-08-06T04:40:58;6.60;;;3.30;;
177;SDS011;77;48.792;9.032;2023-08-06T04:43:23;7.10;;;3.50;;
177;SDS011;77;48.792;9.032;2023-08-06T04:45:50;6.10;;;3.50;;
177;SDS011;77;48.792;9.032;2023-08-06T04:48:15;7.00;;;3.40;;
177;SDS011;77;48.792;9.032;2023-08-06T04:50:43;8.10;;;3.37;;
177;SDS011;77;48.792;9.032;2023-08-06T04:53:08;6.03;;;2.83;;
177;SDS011;77;48.792;9.032;2023-08-06T04:55:33;6.37;;;2.90;;
177;SDS011;77;48.792;9.032;2023-08-06T04:57:58;7.40;;;2.73;;
177;SDS011;77;48.792;9.032;2023-08-06T05:00:23;5.30;;;2.70;;
177;SDS011;77;48.792;9.032;2023-08-06T05:02:50;5.30;;;2.67;;
177;SDS011;77;48.792;9.032;2023-08-06T05:05:15;5.00;;;2.70;;
177;SDS011;77;48.792;9.032;2023-08-06T05:07:40;5.00;;;2.50;;
177;SDS011;77;48.792;9.032;2023-08-06T05:10:06;6.13;;;2.80;;
177;SDS011;77;48.792;9.032;2023-08-06T05:12:31;4.93;;;2.50;;
177;SDS011;77;48.792;9.032;2023-08-06T05:14:56;6.40;;;2.30;;
177;SDS011;77;48.792;9.032;2023-08-06T05:17:21;5.60;;;2.50;;
177;SDS011;77;48.792;9.032;2023-08-06T05:19:48;4.20;;;2.50;;
177;SDS011;77;48.792;9.032;2023-08-06T05:22:13;3.97;;;2.03;;
177;SDS011;77;48.792;9.032;2023-08-06T05:24:38;5.93;;;2.20;;
177;SDS011;77;48.792;9.032;2023-08-06T05:27:04;3.70;;;1.90;;
177;SDS011;77;48.792;9.032;2023-08-06T05:29:29;4.80;;;2.20;;
177;SDS011;77;48.792;9.032;2023-08-06T05:31:54;5.33;;;2.10;;
177;SDS011;77;48.792;9.032;2023-08-06T05:34:19;6.60;;;2.10;;
177;SDS011;77;48.792;9.032;2023-08-06T05:36:46;4.30;;;2.33;;
177;SDS011;77;48.792;9.032;2023-08-06T05:39:11;4.93;;;2.00;;
177;SDS011;77;48.792;9.032;2023-08-06T05:41:36;4.17;;;1.80;;
177;SDS011;77;48.792;9.032;2023-08-06T05:44:01;3.90;;;2.00;;
177;SDS011;77;48.792;9.032;2023-08-06T05:46:26;4.93;;;2.00;;
177;SDS011;77;48.792;9.032;2023-08-06T05:48:51;3.80;;;2.00;;
177;SDS011;77;48.792;9.032;2023-08-06T05:51:17;3.83;;;1.80;;
177;SDS011;77;48.792;9.032;2023-08-06T05:53:43;5.33;;;2.00;;
177;SDS011;77;48.792;9.032;2023-08-06T05:56:08;4.07;;;1.73;;
177;SDS011;77;48.792;9.032;2023-08-06T05:58:33;5.63;;;2.00;;
177;SDS011;77;48.792;9.032;2023-08-06T06:00:59;4.10;;;1.87;;
177;SDS011;77;48.792;9.032;2023-08-06T06:03:24;4.53;;;1.80;;
177;SDS011;77;48.792;9.032;2023-08-06T06:05:49;3.60;;;1.70;;
177;SDS011;77;48.792;9.032;2023-08-06T06:08:14;4.83;;;1.73;;
177;SDS011;77;48.792;9.032;2023-08-06T06:10:41;8.30;;;2.00;;
177;SDS011;77;48.792;9.032;2023-08-06T06:13:06;5.00;;;1.87;;
177;SDS011;77;48.792;9.032;2023-08-06T06:15:31;4.50;;;2.00;;
177;SDS011;77;48.792;9.032;2023-08-06T06:17:56;3.70;;;1.70;;
177;SDS011;77;48.792;9.032;2023-08-06T06:20:21;5.17;;;2.00;;
177;SDS011;77;48.792;9.032;2023-08-06T06:22:46;4.27;;;1.90;;
177;SDS011;77;48.792;9.032;2023-08-06T06:25:12;5.60;;;1.87;;
177;SDS011;77;48.792;9.032;2023-08-06T06:27:38;4.10;;;1.80;;
177;SDS011;77;48.792;9.032;2023-08-06T06:30:03;4.53;;;1.80;;
177;SDS011;77;48.792;9.032;2023-08-06T06:32:29;5.37;;;1.80;;
177;SDS011;77;48.792;9.032;2023-08-06T06:34:54;4.70;;;1.60;;
177;SDS011;77;48.792;9.032;2023-08-06T06:37:19;3.90;;;1.50;;
177;SDS011;77;48.792;9.032;2023-08-06T06:39:44;3.77;;;1.60;;
177;SDS011;77;48.792;9.032;2023-08-06T06:42:09;4.07;;;1.60;;
177;SDS011;77;48.792;9.032;2023-08-06T06:44:36;5.20;;;1.70;;
177;SDS011;77;48.792;9.032;2023-08-06T06:47:01;3.20;;;1.40;;
177;SDS011;77;48.792;9.032;2023-08-06T06:49:26;4.13;;;1.60;;
177;SDS011;77;48.792;9.032;2023-08-06T06:51:51;6.30;;;1.60;;
177;SDS011;77;48.792;9.032;2023-08-06T06:54:17;4.00;;;1.30;;
177;SDS011;77;48.792;9.032;2023-08-06T06:56:42;3.43;;;1.50;;
177;SDS011;77;48.792;9.032;2023-08-06T06:59:07;3.00;;;1.30;;
177;SDS011;77;48.792;9.032;2023-08-06T07:01:33;3.10;;;1.40;;
177;SDS011;77;48.792;9.032;2023-08-06T07:03:59;4.53;;;1.30;;
177;SDS011;77;48.792;9.032;2023-08-06T07:06:24;4.28;;;1.50;;
177;SDS011;77;48.792;9.032;2023-08-06T07:08:49;3.23;;;1.30;;
177;SDS011;77;48.792;9.032;2023-08-06T07:11:14;3.20;;;1.40;;
177;SDS011;77;48.792;9.032;2023-08-06T07:13:39;4.10;;;1.50;;
177;SDS011;77;48.792;9.032;2023-08-06T07:16:04;3.70;;;1.43;;
177;SDS011;77;48.792;9.032;2023-08-06T07:18:31;3.40;;;1.50;;
177;SDS011;77;48.792;9.032;2023-08-06T07:20:56;3.70;;;1.53;;
177;SDS011;77;48.792;9.032;2023-08-06T07:23:22;3.47;;;1.40;;
177;SDS011;77;48.792;9.032;2023-08-06T07:25:47;4.40;;;1.47;;
177;SDS011;77;48.792;9.032;2023-08-06T07:28:12;3.20;;;1.50;;
177;SDS011;77;48.792;9.032;2023-08-06T07:30:38;3.00;;;1.40;;
177;SDS011;77;48.792;9.032;2023-08-06T07:33:03;3.90;;;1.53;;
177;SDS011;77;48.792;9.032;2023-08-06T07:35:30;3.47;;;1.43;;
177;SDS011;77;48.792;9.032;2023-08-06T07:37:55;3.30;;;1.40;;
177;SDS011;77;48.792;9.032;2023-08-06T07:40:20;4.00;;;1.50;;
177;SDS011;77;48.792;9.032;2023-08-06T07:42:45;3.60;;;1.30;;
177;SDS011;77;48.792;9.032;2023-08-06T07:45:10;3.30;;;1.40;;
177;SDS011;77;48.792;9.032;2023-08-06T07:47:35;3.80;;;1.40;;
177;SDS011;77;48.792;9.032;2023-08-06T07:50:01;3.17;;;1.40;;
177;SDS011;77;48.792;9.032;2023-08-06T07:52:27;3.23;;;1.40;;
177;SDS011;77;48.792;9.032;2023-08-06T07:54:52;4.47;;;1.40;;
177;SDS011;77;48.792;9.032;2023-08-06T07:57:17;3.53;;;1.30;;
177;SDS011;77;48.792;9.032;2023-08-06T07:59:43;3.17;;;1.30;;
177;SDS011;77;48.792;9.032;2023-08-06T08:02:08;3.10;;;1.30;;
177;SDS011;77;48.792;9.032;2023-08-06T08:04:33;2.87;;;1.30;;
177;SDS011;77;48.792;9.032;2023-08-06T08:06:58;2.83;;;1.37;;
177;SDS011;77;48.792;9.032;2023-08-06T08:09:25;3.80;;;1.40;;
177;SDS011;77;48.792;9.032;2023-08-06T08:11:50;3.10;;;1.30;;
177;SDS011;77;48.792;9.032;2023-08-06T08:14:15;2.77;;;1.20;;
177;SDS011;77;48.792;9.032;2023-08-06T08:16:40;4.37;;;1.37;;
177;SDS011;77;48.792;9.032;2023-08-06T08:19:05;3.13;;;1.33;;
177;SDS011;77;48.792;9.032;2023-08-06T08:21:30;6.13;;;1.30;;
177;SDS011;77;48.792;9.032;2023-08-06T08:23:56;2.70;;;1.20;;
177;SDS011;77;48.792;9.032;2023-08-06T08:26:22;3.10;;;1.30;;
177;SDS011;77;48.792;9.032;2023-08-06T08:28:47;2.80;;;1.20;;
177;SDS011;77;48.792;9.032;2023-08-06T08:31:12;2.63;;;1.10;;
177;SDS011;77;48.792;9.032;2023-08-06T08:33:37;3.30;;;1.30;;
177;SDS011;77;48.792;9.032;2023-08-06T08:36:03;4.80;;;1.50;;
177;SDS011;77;48.792;9.032;2023-08-06T08:38:28;3.00;;;1.20;;
177;SDS011;77;48.792;9.032;2023-08-06T08:40:53;2.90;;;1.30;;
177;SDS011;77;48.792;9.032;2023-08-06T08:43:20;3.10;;;1.20;;
177;SDS011;77;48.792;9.032;2023-08-06T08:45:46;2.70;;;1.10;;
177;SDS011;77;48.792;9.032;2023-08-06T08:48:14;3.20;;;1.20;;
177;SDS011;77;48.792;9.032;2023-08-06T08:50:39;2.80;;;1.20;;
177;SDS011;77;48.792;9.032;2023-08-06T08:53:04;3.50;;;1.30;;
177;SDS011;77;48.792;9.032;2023-08-06T08:55:30;2.70;;;1.20;;
177;SDS011;77;48.792;9.032;2023-08-06T08:57:56;2.90;;;1.20;;
177;SDS011;77;48.792;9.032;2023-08-06T09:00:23;2.60;;;1.10;;
177;SDS011;77;48.792;9.032;2023-08-06T09:02:48;2.80;;;1.20;;
177;SDS011;77;48.792;9.032;2023-08-06T09:05:14;2.80;;;1.10;;
177;SDS011;77;48.792;9.032;2023-08-06T09:07:41;3.10;;;1.20;;
177;SDS011;77;48.792;9.032;2023-08-06T09:10:07;3.53;;;1.50;;
177;SDS011;77;48.792;9.032;2023-08-06T09:12:35;2.90;;;1.20;;
177;SDS011;77;48.792;9.032;2023-08-06T09:15:00;4.13;;;1.23;;
177;SDS011;77;48.792;9.032;2023-08-06T09:17:27;2.97;;;1.27;;
177;SDS011;77;48.792;9.032;2023-08-06T09:19:52;2.80;;;1.10;;
177;SDS011;77;48.792;9.032;2023-08-06T09:22:17;2.87;;;1.20;;
177;SDS011;77;48.792;9.032;2023-08-06T09:24:42;2.70;;;1.10;;
177;SDS011;77;48.792;9.032;2023-08-06T09:27:10;2.70;;;1.10;;
177;SDS011;77;48.792;9.032;2023-08-06T09:29:35;3.20;;;1.20;;
177;SDS011;77;48.792;9.032;2023-08-06T09:32:04;3.10;;;1.20;;
177;SDS011;77;48.792;9.032;2023-08-06T09:34:31;2.67;;;1.10;;
177;SDS011;77;48.792;9.032;2023-08-06T09:36:56;2.73;;;1.20;;
177;SDS011;77;48.792;9.032;2023-08-06T09:39:22;6.60;;;1.20;;
177;SDS011;77;48.792;9.032;2023-08-06T09:41:47;3.20;;;1.20;;
177;SDS011;77;48.792;9.032;2023-08-06T09:44:15;3.13;;;1.10;;
177;SDS011;77;48.792;9.032;2023-08-06T09:46:40;2.70;;;1.10;;
177;SDS011;77;48.792;9.032;2023-08-06T09:49:05;2.97;;;1.30;;
177;SDS011;77;48.792;9.032;2023-08-06T09:51:32;2.70;;;1.20;;
177;SDS011;77;48.792;9.032;2023-08-06T09:53:57;2.77;;;1.20;;
177;SDS011;77;48.792;9.032;2023-08-06T09:56:23;2.87;;;1.20;;
177;SDS011;77;48.792;9.032;2023-08-06T09:58:48;2.90;;;1.20;;
177;SDS011;77;48.792;9.032;2023-08-06T10:01:14;2.80;;;1.10;;
177;SDS011;77;48.792;9.032;2023-08-06T10:03:41;2.80;;;1.10;;
177;SDS011;77;48.792;9.032;2023-08-06T10:06:07;2.77;;;1.23;;
177;SDS011;77;48.792;9.032;2023-08-06T10:08:33;2.70;;;1.20;;
177;SDS011;77;48.792;9.032;2023-08-06T10:10:58;3.40;;;1.30;;
177;SDS011;77;48.792;9.032;2023-08-06T10:13:24;2.80;;;1.10;;
177;SDS011;77;48.792;9.032;2023-08-06T10:15:49;5.83;;;1.40;;
177;SDS011;77;48.792;9.032;2023-08-06T10:18:15;2.80;;;1.20;;
177;SDS011;77;48.792;9.032;2023-08-06T10:20:41;2.80;;;1.20;;
177;SDS011;77;48.792;9.032;2023-08-06T10:23:07;3.00;;;1.30;;
177;SDS011;77;48.792;9.032;2023-08-06T10:25:33;3.10;;;1.30;;
177;SDS011;77;48.792;9.032;2023-08-06T10:27:59;3.83;;;1.20;;
177;SDS011;77;48.792;9.032;2023-08-06T10:30:25;3.23;;;1.30;;
177;SDS011;77;48.792;9.032;2023-08-06T10:32:51;2.90;;;1.23;;
177;SDS011;77;48.792;9.032;2023-08-06T10:35:29;2.70;;;1.33;;
177;SDS011;77;48.792;9.032;2023-08-06T10:37:54;3.00;;;1.37;;
177;SDS011;77;48.792;9.032;2023-08-06T10:40:22;2.70;;;1.13;;
177;SDS011;77;48.792;9.032;2023-08-06T10:42:48;2.80;;;1.27;;
177;SDS011;77;48.792;9.032;2023-08-06T10:45:14;2.90;;;1.30;;
177;SDS011;77;48.792;9.032;2023-08-06T10:47:39;2.60;;;1.10;;
177;SDS011;77;48.792;9.032;2023-08-06T10:50:05;3.00;;;1.27;;
177;SDS011;77;48.792;9.032;2023-08-06T10:52:30;3.40;;;1.20;;
177;SDS011;77;48.792;9.032;2023-08-06T10:54:56;2.90;;;1.30;;
177;SDS011;77;48.792;9.032;2023-08-06T10:57:21;2.80;;;1.30;;
177;SDS011;77;48.792;9.032;2023-08-06T10:59:47;3.40;;;1.50;;
177;SDS011;77;48.792;9.032;2023-08-06T11:02:12;3.00;;;1.40;;
177;SDS011;77;48.792;9.032;2023-08-06T11:04:38;2.80;;;1.30;;
177;SDS011;77;48.792;9.032;2023-08-06T11:07:03;4.77;;;1.50;;
177;SDS011;77;48.792;9.032;2023-08-06T11:09:28;3.30;;;1.50;;
177;SDS011;77;48.792;9.032;2023-08-06T11:11:53;3.10;;;1.60;;
177;SDS011;77;48.792;9.032;2023-08-06T11:14:18;2.97;;;1.57;;
177;SDS011;77;48.792;9.032;2023-08-06T11:16:45;3.00;;;1.40;;
177;SDS011;77;48.792;9.032;2023-08-06T11:19:10;3.63;;;1.80;;
177;SDS011;77;48.792;9.032;2023-08-06T11:21:35;3.50;;;1.90;;
177;SDS011;77;48.792;9.032;2023-08-06T11:24:00;4.87;;;1.67;;
177;SDS011;77;48.792;9.032;2023-08-06T11:26:26;4.63;;;2.30;;
177;SDS011;77;48.792;9.032;2023-08-06T11:28:51;5.00;;;2.10;;
177;SDS011;77;48.792;9.032;2023-08-06T11:31:19;5.20;;;2.20;;
177;SDS011;77;48.792;9.032;2023-08-06T11:33:46;3.77;;;2.00;;
177;SDS011;77;48.792;9.032;2023-08-06T11:36:11;4.70;;;2.30;;
177;SDS011;77;48.792;9.032;2023-08-06T11:38:36;4.70;;;2.40;;
177;SDS011;77;48.792;9.032;2023-08-06T11:41:01;4.70;;;2.43;;
177;SDS011;77;48.792;9.032;2023-08-06T11:43:29;4.83;;;2.60;;
177;SDS011;77;48.792;9.032;2023-08-06T11:45:55;4.43;;;2.20;;
177;SDS011;77;48.792;9.032;2023-08-06T11:48:21;5.53;;;2.53;;
177;SDS011;77;48.792;9.032;2023-08-06T11:50:47;5.57;;;2.70;;
177;SDS011;77;48.792;9.032;2023-08-06T11:53:13;4.93;;;2.80;;
177;SDS011;77;48.792;9.032;2023-08-06T11:55:38;4.87;;;2.60;;
177;SDS011;77;48.792;9.032;2023-08-06T11:58:03;4.57;;;2.57;;
177;SDS011;77;48.792;9.032;2023-08-06T12:00:29;4.30;;;2.40;;
177;SDS011;77;48.792;9.032;2023-08-06T12:02:54;4.70;;;2.50;;
177;SDS011;77;48.792;9.032;2023-08-06T12:05:19;6.10;;;2.70;;
177;SDS011;77;48.792;9.032;2023-08-06T12:07:47;5.03;;;2.67;;
177;SDS011;77;48.792;9.032;2023-08-06T12:10:13;4.00;;;2.30;;
177;SDS011;77;48.792;9.032;2023-08-06T12:12:38;3.90;;;2.47;;
177;SDS011;77;48.792;9.032;2023-08-06T12:15:04;6.00;;;2.50;;
177;SDS011;77;48.792;9.032;2023-08-06T12:17:29;5.80;;;2.60;;
177;SDS011;77;48.792;9.032;2023-08-06T12:19:54;5.53;;;3.10;;
177;SDS011;77;48.792;9.032;2023-08-06T12:22:19;5.20;;;2.60;;
177;SDS011;77;48.792;9.032;2023-08-06T12:24:46;5.37;;;2.90;;
177;SDS011;77;48.792;9.032;2023-08-06T12:27:12;4.40;;;2.50;;
177;SDS011;77;48.792;9.032;2023-08-06T12:29:37;5.60;;;2.53;;
177;SDS011;77;48.792;9.032;2023-08-06T12:32:02;5.50;;;2.70;;
177;SDS011;77;48.792;9.032;2023-08-06T12:34:28;4.53;;;2.40;;
177;SDS011;77;48.792;9.032;2023-08-06T12:36:53;4.00;;;2.10;;
177;SDS011;77;48.792;9.032;2023-08-06T12:39:18;3.90;;;2.30;;
177;SDS011;77;48.792;9.032;2023-08-06T12:41:45;4.03;;;2.10;;
177;SDS011;77;48.792;9.032;2023-08-06T12:44:10;6.90;;;2.03;;
177;SDS011;77;48.792;9.032;2023-08-06T12:46:35;3.30;;;1.90;;
177;SDS011;77;48.792;9.032;2023-08-06T12:49:01;3.67;;;1.90;;
177;SDS011;77;48.792;9.032;2023-08-06T12:51:26;4.03;;;2.00;;
177;SDS011;77;48.792;9.032;2023-08-06T12:53:51;3.20;;;1.70;;
177;SDS011;77;48.792;9.032;2023-08-06T12:56:16;8.17;;;2.03;;
177;SDS011;77;48.792;9.032;2023-08-06T12:58:43;3.10;;;1.90;;
177;SDS011;77;48.792;9.032;2023-08-06T13:01:08;4.80;;;2.30;;
177;SDS011;77;48.792;9.032;2023-08-06T13:03:33;3.73;;;2.20;;
177;SDS011;77;48.792;9.032;2023-08-06T13:05:58;3.57;;;2.07;;
177;SDS011;77;48.792;9.032;2023-08-06T13:08:23;3.73;;;2.27;;
177;SDS011;77;48.792;9.032;2023-08-06T13:10:48;3.50;;;1.97;;
177;SDS011;77;48.792;9.032;2023-08-06T13:13:14;3.90;;;2.00;;
177;SDS011;77;48.792;9.032;2023-08-06T13:15:40;5.03;;;2.17;;
177;SDS011;77;48.792;9.032;2023-08-06T13:18:05;3.40;;;2.00;;
177;SDS011;77;48.792;9.032;2023-08-06T13:20:31;3.60;;;1.90;;
177;SDS011;77;48.792;9.032;2023-08-06T13:22:57;3.73;;;1.80;;
177;SDS011;77;48.792;9.032;2023-08-06T13:25:22;3.40;;;1.80;;
177;SDS011;77;48.792;9.032;2023-08-06T13:27:48;4.90;;;1.90;;
177;SDS011;77;48.792;9.032;2023-08-06T13:30:13;4.33;;;1.80;;
177;SDS011;77;48.792;9.032;2023-08-06T13:32:39;4.97;;;1.83;;
177;SDS011;77;48.792;9.032;2023-08-06T13:35:05;3.97;;;2.00;;
177;SDS011;77;48.792;9.032;2023-08-06T13:37:30;3.53;;;2.00;;
177;SDS011;77;48.792;9.032;2023-08-06T13:39:55;3.73;;;2.10;;
177;SDS011;77;48.792;9.032;2023-08-06T13:42:20;3.20;;;1.80;;
177;SDS011;77;48.792;9.032;2023-08-06T13:44:45;4.33;;;1.83;;
177;SDS011;77;48.792;9.032;2023-08-06T13:47:11;3.53;;;1.67;;
177;SDS011;77;48.792;9.032;2023-08-06T13:49:37;2.90;;;1.60;;
177;SDS011;77;48.792;9.032;2023-08-06T13:52:02;3.50;;;1.77;;
177;SDS011;77;48.792;9.032;2023-08-06T13:54:28;3.47;;;1.70;;
177;SDS011;77;48.792;9.032;2023-08-06T13:56:53;2.60;;;1.60;;
177;SDS011;77;48.792;9.032;2023-08-06T13:59:18;4.70;;;1.80;;
177;SDS011;77;48.792;9.032;2023-08-06T14:01:43;3.33;;;1.80;;
177;SDS011;77;48.792;9.032;2023-08-06T14:04:09;3.00;;;1.77;;
177;SDS011;77;48.792;9.032;2023-08-06T14:06:35;3.83;;;1.83;;
177;SDS011;77;48.792;9.032;2023-08-06T14:09:00;3.37;;;1.80;;
177;SDS011;77;48.792;9.032;2023-08-06T14:11:25;3.80;;;1.87;;
177;SDS011;77;48.792;9.032;2023-08-06T14:13:51;3.20;;;1.80;;
177;SDS011;77;48.792;9.032;2023-08-06T14:16:16;3.47;;;2.00;;
177;SDS011;77;48.792;9.032;2023-08-06T14:18:41;4.00;;;1.80;;
177;SDS011;77;48.792;9.032;2023-08-06T14:21:06;2.93;;;2.00;;
177;SDS011;77;48.792;9.032;2023-08-06T14:23:33;5.03;;;1.83;;
177;SDS011;77;48.792;9.032;2023-08-06T14:25:58;3.50;;;1.90;;
177;SDS011;77;48.792;9.032;2023-08-06T14:28:23;2.83;;;1.77;;
177;SDS011;77;48.792;9.032;2023-08-06T14:30:48;3.83;;;1.80;;
177;SDS011;77;48.792;9.032;2023-08-06T14:33:13;4.93;;;1.70;;
177;SDS011;77;48.792;9.032;2023-08-06T14:35:38;3.17;;;1.83;;
177;SDS011;77;48.792;9.032;2023-08-06T14:38:04;4.27;;;1.90;;
177;SDS011;77;48.792;9.032;2023-08-06T14:40:30;4.10;;;2.10;;
177;SDS011;77;48.792;9.032;2023-08-06T14:42:55;3.43;;;2.03;;
177;SDS011;77;48.792;9.032;2023-08-06T14:45:20;5.50;;;1.90;;
177;SDS011;77;48.792;9.032;2023-08-06T14:47:46;7.63;;;1.90;;
177;SDS011;77;48.792;9.032;2023-08-06T14:50:11;3.70;;;2.10;;
177;SDS011;77;48.792;9.032;2023-08-06T14:52:36;4.23;;;2.00;;
177;SDS011;77;48.792;9.032;2023-08-06T14:55:01;4.07;;;2.17;;
177;SDS011;77;48.792;9.032;2023-08-06T14:57:28;3.50;;;1.87;;
177;SDS011;77;48.792;9.032;2023-08-06T14:59:53;3.67;;;1.97;;
177;SDS011;77;48.792;9.032;2023-08-06T15:02:18;3.33;;;1.87;;
177;SDS011;77;48.792;9.032;2023-08-06T15:04:43;3.20;;;1.80;;
177;SDS011;77;48.792;9.032;2023-08-06T15:07:09;3.50;;;1.97;;
177;SDS011;77;48.792;9.032;2023-08-06T15:09:34;4.93;;;2.20;;
177;SDS011;77;48.792;9.032;2023-08-06T15:11:59;3.30;;;1.90;;
177;SDS011;77;48.792;9.032;2023-08-06T15:14:25;3.63;;;1.90;;
177;SDS011;77;48.792;9.032;2023-08-06T15:16:51;4.30;;;2.20;;
177;SDS011;77;48.792;9.032;2023-08-06T15:19:16;4.00;;;1.90;;
177;SDS011;77;48.792;9.032;2023-08-06T15:21:41;3.30;;;2.00;;
177;SDS011;77;48.792;9.032;2023-08-06T15:24:06;2.80;;;1.70;;
177;SDS011;77;48.792;9.032;2023-08-06T15:26:31;4.20;;;2.20;;
177;SDS011;77;48.792;9.032;2023-08-06T15:28:56;3.97;;;1.90;;
177;SDS011;77;48.792;9.032;2023-08-06T15:31:23;7.90;;;1.90;;
177;SDS011;77;48.792;9.032;2023-08-06T15:33:48;7.90;;;1.80;;
177;SDS011;77;48.792;9.032;2023-08-06T15:36:13;3.07;;;1.90;;
177;SDS011;77;48.792;9.032;2023-08-06T15:38:38;3.80;;;2.00;;
177;SDS011;77;48.792;9.032;2023-08-06T15:41:04;3.67;;;2.00;;
177;SDS011;77;48.792;9.032;2023-08-06T15:43:29;4.70;;;1.83;;
177;SDS011;77;48.792;9.032;2023-08-06T15:45:54;3.07;;;1.60;;
177;SDS011;77;48.792;9.032;2023-08-06T15:48:20;3.20;;;1.90;;